createdAt,value
2023-02-12T00:00:12.806Z,426.00
2023-02-12T00:01:12.821Z,426.00
2023-02-12T00:02:12.859Z,424.00
2023-02-12T00:03:12.803Z,427.00
2023-02-12T00:04:12.773Z,426.00
2023-02-12T00:05:12.759Z,426.00
2023-02-12T00:54:53.348Z,427.00
2023-02-12T00:55:57.319Z,427.00
2023-02-12T00:56:54.227Z,427.00
2023-02-12T00:57:54.203Z,427.00
2023-02-12T00:58:54.209Z,424.00
2023-02-12T00:59:54.187Z,424.00
2023-02-12T01:00:54.188Z,421.00
2023-02-12T01:01:54.292Z,424.00
2023-02-12T01:02:54.160Z,424.00
2023-02-12T01:03:54.149Z,426.00
2023-02-12T01:04:54.211Z,427.00
2023-02-12T01:05:54.726Z,428.00
2023-02-12T01:06:54.127Z,430.00
2023-02-12T01:07:54.119Z,429.00
2023-02-12T01:08:54.105Z,430.00
2023-02-12T01:09:54.093Z,432.00
2023-02-12T01:10:54.115Z,432.00
2023-02-12T01:11:54.086Z,432.00
2023-02-12T01:12:54.078Z,430.00
2023-02-12T01:13:54.061Z,428.00
2023-02-12T01:14:54.052Z,429.00
2023-02-12T01:15:54.691Z,430.00
2023-02-12T01:16:54.033Z,428.00
2023-02-12T01:17:54.038Z,427.00
2023-02-12T01:18:55.945Z,426.00
2023-02-12T01:19:54.014Z,424.00
2023-02-12T01:20:54.007Z,425.00
2023-02-12T01:21:53.984Z,427.00
2023-02-12T01:22:53.980Z,428.00
2023-02-12T01:23:53.976Z,429.00
2023-02-12T01:24:53.957Z,431.00
2023-02-12T01:25:54.561Z,431.00
2023-02-12T01:26:53.970Z,430.00
2023-02-12T01:27:53.939Z,432.00
2023-02-12T01:28:54.021Z,435.00
2023-02-12T01:29:53.916Z,432.00
2023-02-12T01:30:53.995Z,429.00
2023-02-12T01:31:54.005Z,427.00
2023-02-12T01:32:53.909Z,428.00
2023-02-12T01:33:53.911Z,429.00
2023-02-12T01:34:53.877Z,429.00
2023-02-12T01:35:54.231Z,431.00
2023-02-12T01:36:53.846Z,432.00
2023-02-12T01:37:55.264Z,431.00
2023-02-12T01:38:53.827Z,434.00
2023-02-12T01:39:54.398Z,435.00
2023-02-12T01:40:53.821Z,434.00
2023-02-12T01:41:53.808Z,432.00
2023-02-12T01:42:53.827Z,430.00
2023-02-12T01:43:53.783Z,430.00
2023-02-12T01:44:53.776Z,428.00
2023-02-12T01:45:54.315Z,428.00
2023-02-12T01:46:53.804Z,426.00
2023-02-12T01:47:53.747Z,426.00
2023-02-12T01:48:53.741Z,426.00
2023-02-12T01:49:53.727Z,428.00
2023-02-12T01:50:53.720Z,434.00
2023-02-12T01:51:53.721Z,436.00
2023-02-12T01:52:53.699Z,435.00
2023-02-12T01:53:53.706Z,436.00
2023-02-12T01:54:57.035Z,435.00
2023-02-12T01:55:54.128Z,434.00
2023-02-12T01:56:53.675Z,434.00
2023-02-12T01:57:53.661Z,435.00
2023-02-12T01:58:53.669Z,436.00
2023-02-12T01:59:53.635Z,436.00
2023-02-12T02:00:53.624Z,433.00
2023-02-12T02:01:56.542Z,431.00
2023-02-12T02:02:53.683Z,430.00
2023-02-12T02:03:53.605Z,429.00
2023-02-12T02:04:53.595Z,429.00
2023-02-12T02:05:54.082Z,429.00
2023-02-12T02:06:53.568Z,431.00
2023-02-12T02:07:53.566Z,431.00
2023-02-12T02:08:53.558Z,430.00
2023-02-12T02:09:53.554Z,429.00
2023-02-12T02:10:53.532Z,429.00
2023-02-12T02:11:54.409Z,431.00
2023-02-12T02:12:53.520Z,432.00
2023-02-12T02:13:53.505Z,431.00
2023-02-12T02:14:53.521Z,430.00
2023-02-12T02:15:53.778Z,431.00
2023-02-12T02:16:53.476Z,432.00
2023-02-12T02:17:53.483Z,433.00
2023-02-12T02:18:53.468Z,438.00
2023-02-12T02:19:53.453Z,437.00
2023-02-12T02:20:53.439Z,438.00
2023-02-12T02:21:53.428Z,438.00
2023-02-12T02:22:53.424Z,438.00
2023-02-12T02:23:53.414Z,438.00
2023-02-12T02:24:53.404Z,439.00
2023-02-12T02:25:53.697Z,437.00
2023-02-12T02:26:53.383Z,436.00
2023-02-12T02:27:53.373Z,435.00
2023-02-12T02:28:53.359Z,438.00
2023-02-12T02:29:53.359Z,436.00
2023-02-12T02:30:53.404Z,434.00
2023-02-12T02:31:53.442Z,432.00
2023-02-12T02:32:53.336Z,431.00
2023-02-12T02:33:53.322Z,432.00
2023-02-12T02:34:53.305Z,435.00
2023-02-12T02:35:53.753Z,435.00
2023-02-12T02:37:00.485Z,432.00
2023-02-12T02:37:53.275Z,430.00
2023-02-12T02:38:53.354Z,430.00
2023-02-12T02:39:53.263Z,428.00
2023-02-12T02:40:53.914Z,429.00
2023-02-12T02:41:53.242Z,429.00
2023-02-12T02:42:53.231Z,431.00
2023-02-12T02:43:53.270Z,432.00
2023-02-12T02:44:53.217Z,432.00
2023-02-12T02:45:54.365Z,429.00
2023-02-12T02:46:53.240Z,426.00
2023-02-12T02:47:53.213Z,424.00
2023-02-12T02:48:53.176Z,426.00
2023-02-12T02:49:53.171Z,425.00
2023-02-12T02:50:53.157Z,424.00
2023-02-12T02:51:53.150Z,424.00
2023-02-12T02:52:53.137Z,423.00
2023-02-12T02:53:53.133Z,423.00
2023-02-12T02:54:53.122Z,424.00
2023-02-12T02:55:53.502Z,427.00
2023-02-12T02:56:53.109Z,430.00
2023-02-12T02:57:53.089Z,432.00
2023-02-12T02:58:53.083Z,435.00
2023-02-12T02:59:53.073Z,434.00
2023-02-12T03:00:53.133Z,432.00
2023-02-12T03:01:53.057Z,433.00
2023-02-12T03:02:53.100Z,433.00
2023-02-12T03:03:53.070Z,434.00
2023-02-12T03:04:53.026Z,433.00
2023-02-12T03:05:53.495Z,431.00
2023-02-12T03:06:53.006Z,430.00
2023-02-12T03:07:52.999Z,429.00
2023-02-12T03:08:52.995Z,430.00
2023-02-12T03:09:52.985Z,430.00
2023-02-12T03:10:52.976Z,429.00
2023-02-12T03:11:52.960Z,427.00
2023-02-12T03:12:52.952Z,426.00
2023-02-12T03:13:52.940Z,427.00
2023-02-12T03:14:52.938Z,427.00
2023-02-12T03:15:52.937Z,428.00
2023-02-12T03:16:52.919Z,431.00
2023-02-12T03:17:52.927Z,431.00
2023-02-12T03:18:52.903Z,431.00
2023-02-12T03:19:52.938Z,431.00
2023-02-12T03:20:52.880Z,431.00
2023-02-12T03:21:52.865Z,431.00
2023-02-12T03:22:52.859Z,431.00
2023-02-12T03:23:52.857Z,430.00
2023-02-12T03:24:52.847Z,431.00
2023-02-12T03:25:53.212Z,431.00
2023-02-12T03:26:52.823Z,429.00
2023-02-12T03:27:52.946Z,427.00
2023-02-12T03:28:52.808Z,431.00
2023-02-12T03:29:52.797Z,431.00
2023-02-12T03:30:52.880Z,433.00
2023-02-12T03:31:52.876Z,431.00
2023-02-12T03:32:52.771Z,432.00
2023-02-12T03:33:52.767Z,432.00
2023-02-12T03:34:52.754Z,433.00
2023-02-12T03:35:53.138Z,434.00
2023-02-12T03:36:52.736Z,438.00
2023-02-12T03:37:52.738Z,441.00
2023-02-12T03:38:52.721Z,441.00
2023-02-12T03:39:52.706Z,439.00
2023-02-12T03:40:52.707Z,439.00
2023-02-12T03:41:52.690Z,440.00
2023-02-12T03:42:52.683Z,439.00
2023-02-12T03:43:52.674Z,442.00
2023-02-12T03:44:52.659Z,441.00
2023-02-12T03:45:52.723Z,443.00
2023-02-12T03:46:52.644Z,444.00
2023-02-12T03:47:52.642Z,444.00
2023-02-12T03:48:52.625Z,443.00
2023-02-12T03:49:52.617Z,444.00
2023-02-12T03:50:52.607Z,444.00
2023-02-12T03:51:52.624Z,444.00
2023-02-12T03:52:52.592Z,444.00
2023-02-12T03:53:52.582Z,442.00
2023-02-12T03:54:52.569Z,443.00
2023-02-12T03:55:52.572Z,444.00
2023-02-12T03:56:52.556Z,443.00
2023-02-12T03:57:52.535Z,445.00
2023-02-12T03:58:52.531Z,446.00
2023-02-12T03:59:52.946Z,446.00
2023-02-12T04:00:52.540Z,444.00
2023-02-12T04:01:52.588Z,442.00
2023-02-12T04:02:52.493Z,440.00
2023-02-12T04:03:52.558Z,441.00
2023-02-12T04:04:52.469Z,444.00
2023-02-12T04:05:52.505Z,443.00
2023-02-12T04:06:52.450Z,441.00
2023-02-12T04:07:52.466Z,441.00
2023-02-12T04:08:52.432Z,440.00
2023-02-12T04:09:52.428Z,437.00
2023-02-12T04:10:52.414Z,435.00
2023-02-12T04:11:52.404Z,436.00
2023-02-12T04:12:52.407Z,434.00
2023-02-12T04:13:52.388Z,435.00
2023-02-12T04:14:52.377Z,436.00
2023-02-12T04:15:52.366Z,439.00
2023-02-12T04:16:52.452Z,440.00
2023-02-12T04:17:52.347Z,441.00
2023-02-12T04:18:52.366Z,440.00
2023-02-12T04:19:52.328Z,441.00
2023-02-12T04:20:52.330Z,441.00
2023-02-12T04:21:52.306Z,440.00
2023-02-12T04:22:52.301Z,441.00
2023-02-12T04:23:52.318Z,441.00
2023-02-12T04:24:52.283Z,439.00
2023-02-12T04:25:52.283Z,439.00
2023-02-12T04:26:52.267Z,439.00
2023-02-12T04:27:52.258Z,437.00
2023-02-12T04:28:52.248Z,437.00
2023-02-12T04:29:52.237Z,440.00
2023-02-12T04:30:52.404Z,438.00
2023-02-12T04:31:52.294Z,438.00
2023-02-12T04:32:52.220Z,439.00
2023-02-12T04:33:52.206Z,437.00
2023-02-12T04:34:52.196Z,437.00
2023-02-12T04:35:52.221Z,438.00
2023-02-12T04:36:52.180Z,439.00
2023-02-12T04:37:52.177Z,440.00
2023-02-12T04:38:52.154Z,438.00
2023-02-12T04:39:52.178Z,438.00
2023-02-12T04:40:52.151Z,437.00
2023-02-12T04:41:52.134Z,436.00
2023-02-12T04:42:52.134Z,438.00
2023-02-12T04:43:52.112Z,437.00
2023-02-12T04:44:52.102Z,438.00
2023-02-12T04:45:52.167Z,440.00
2023-02-12T04:46:52.086Z,438.00
2023-02-12T04:47:52.078Z,437.00
2023-02-12T04:48:52.087Z,435.00
2023-02-12T04:49:52.056Z,433.00
2023-02-12T04:50:52.056Z,432.00
2023-02-12T04:51:52.037Z,432.00
2023-02-12T04:52:52.050Z,434.00
2023-02-12T04:53:52.080Z,437.00
2023-02-12T04:54:52.022Z,438.00
2023-02-12T04:55:52.066Z,438.00
2023-02-12T04:56:52.051Z,434.00
2023-02-12T04:57:52.009Z,436.00
2023-02-12T04:58:51.991Z,437.00
2023-02-12T04:59:51.962Z,434.00
2023-02-12T05:00:51.957Z,435.00
2023-02-12T05:01:52.008Z,433.00
2023-02-12T05:02:51.938Z,435.00
2023-02-12T05:03:51.940Z,436.00
2023-02-12T05:04:52.005Z,433.00
2023-02-12T05:05:51.917Z,433.00
2023-02-12T05:06:51.901Z,436.00
2023-02-12T05:07:51.896Z,438.00
2023-02-12T05:08:51.880Z,436.00
2023-02-12T05:09:51.876Z,436.00
2023-02-12T05:10:51.869Z,437.00
2023-02-12T05:11:51.894Z,436.00
2023-02-12T05:12:51.855Z,436.00
2023-02-12T05:13:51.831Z,438.00
2023-02-12T05:14:51.825Z,434.00
2023-02-12T05:15:51.876Z,434.00
2023-02-12T05:16:51.816Z,435.00
2023-02-12T05:17:51.798Z,435.00
2023-02-12T05:18:51.805Z,438.00
2023-02-12T05:19:51.797Z,439.00
2023-02-12T05:20:51.773Z,439.00
2023-02-12T05:21:51.758Z,438.00
2023-02-12T05:22:51.752Z,439.00
2023-02-12T05:23:51.748Z,441.00
2023-02-12T05:24:51.735Z,443.00
2023-02-12T05:25:51.745Z,442.00
2023-02-12T05:26:51.719Z,442.00
2023-02-12T05:27:51.732Z,441.00
2023-02-12T05:28:51.694Z,440.00
2023-02-12T05:29:51.689Z,438.00
2023-02-12T05:30:51.800Z,440.00
2023-02-12T05:31:51.817Z,438.00
2023-02-12T05:32:51.659Z,437.00
2023-02-12T05:33:51.669Z,437.00
2023-02-12T05:34:51.643Z,435.00
2023-02-12T05:35:51.662Z,432.00
2023-02-12T05:36:51.622Z,434.00
2023-02-12T05:37:51.615Z,433.00
2023-02-12T05:38:51.669Z,433.00
2023-02-12T05:39:51.608Z,434.00
2023-02-12T05:40:51.586Z,435.00
2023-02-12T05:41:51.573Z,437.00
2023-02-12T05:42:51.582Z,437.00
2023-02-12T05:43:51.582Z,440.00
2023-02-12T05:44:51.545Z,442.00
2023-02-12T05:45:51.538Z,442.00
2023-02-12T05:46:51.617Z,443.00
2023-02-12T05:47:51.531Z,443.00
2023-02-12T05:48:51.517Z,443.00
2023-02-12T05:49:51.506Z,443.00
2023-02-12T05:50:53.219Z,442.00
2023-02-12T05:51:51.476Z,444.00
2023-02-12T05:52:51.477Z,445.00
2023-02-12T05:53:51.471Z,444.00
2023-02-12T05:54:51.455Z,445.00
2023-02-12T05:55:51.442Z,445.00
2023-02-12T05:56:51.431Z,442.00
2023-02-12T05:57:51.423Z,442.00
2023-02-12T05:58:51.415Z,441.00
2023-02-12T05:59:51.442Z,441.00
2023-02-12T06:00:51.397Z,442.00
2023-02-12T06:01:51.392Z,445.00
2023-02-12T06:02:51.404Z,445.00
2023-02-12T06:03:51.469Z,445.00
2023-02-12T06:04:51.361Z,443.00
2023-02-12T06:05:51.352Z,445.00
2023-02-12T06:06:51.355Z,445.00
2023-02-12T06:07:51.333Z,444.00
2023-02-12T06:08:51.320Z,442.00
2023-02-12T06:09:51.312Z,443.00
2023-02-12T06:10:51.316Z,443.00
2023-02-12T06:11:51.291Z,442.00
2023-02-12T06:12:51.284Z,441.00
2023-02-12T06:13:51.316Z,441.00
2023-02-12T06:14:51.266Z,441.00
2023-02-12T06:15:51.312Z,441.00
2023-02-12T06:16:51.249Z,441.00
2023-02-12T06:17:51.242Z,441.00
2023-02-12T06:18:51.226Z,442.00
2023-02-12T06:19:51.223Z,445.00
2023-02-12T06:20:51.208Z,443.00
2023-02-12T06:21:51.211Z,441.00
2023-02-12T06:22:51.198Z,442.00
2023-02-12T06:23:51.187Z,441.00
2023-02-12T06:24:51.181Z,441.00
2023-02-12T06:25:51.161Z,441.00
2023-02-12T06:26:51.185Z,439.00
2023-02-12T06:27:51.147Z,440.00
2023-02-12T06:28:51.138Z,442.00
2023-02-12T06:29:51.141Z,442.00
2023-02-12T06:30:51.403Z,443.00
2023-02-12T06:31:51.258Z,445.00
2023-02-12T06:32:51.108Z,444.00
2023-02-12T06:33:51.119Z,444.00
2023-02-12T06:34:51.086Z,443.00
2023-02-12T06:35:51.074Z,443.00
2023-02-12T06:36:51.065Z,441.00
2023-02-12T06:37:51.062Z,440.00
2023-02-12T06:38:51.047Z,440.00
2023-02-12T06:39:51.038Z,441.00
2023-02-12T06:40:51.032Z,445.00
2023-02-12T06:41:51.097Z,446.00
2023-02-12T06:42:51.017Z,444.00
2023-02-12T06:43:51.009Z,444.00
2023-02-12T06:44:52.985Z,444.00
2023-02-12T06:45:50.983Z,446.00
2023-02-12T06:46:51.023Z,445.00
2023-02-12T06:47:50.995Z,445.00
2023-02-12T06:48:50.958Z,447.00
2023-02-12T06:49:50.947Z,447.00
2023-02-12T06:50:50.938Z,447.00
2023-02-12T06:51:50.927Z,448.00
2023-02-12T06:52:50.919Z,450.00
2023-02-12T06:53:50.912Z,448.00
2023-02-12T06:54:50.912Z,449.00
2023-02-12T06:55:50.896Z,448.00
2023-02-12T06:56:50.888Z,445.00
2023-02-12T06:57:50.871Z,447.00
2023-02-12T06:58:50.866Z,445.00
2023-02-12T06:59:50.857Z,445.00
2023-02-12T07:00:50.888Z,447.00
2023-02-12T07:01:50.842Z,447.00
2023-02-12T07:02:50.824Z,447.00
2023-02-12T07:03:50.894Z,445.00
2023-02-12T07:04:50.806Z,446.00
2023-02-12T07:05:50.803Z,448.00
2023-02-12T07:06:50.790Z,447.00
2023-02-12T07:07:50.781Z,447.00
2023-02-12T07:08:50.779Z,446.00
2023-02-12T07:09:50.777Z,445.00
2023-02-12T07:10:50.758Z,446.00
2023-02-12T07:11:50.744Z,444.00
2023-02-12T07:12:50.740Z,441.00
2023-02-12T07:13:50.731Z,443.00
2023-02-12T07:14:50.717Z,443.00
2023-02-12T07:15:50.741Z,442.00
2023-02-12T07:16:50.774Z,439.00
2023-02-12T07:17:50.687Z,440.00
2023-02-12T07:18:50.683Z,443.00
2023-02-12T07:19:50.698Z,443.00
2023-02-12T07:20:50.675Z,444.00
2023-02-12T07:21:50.662Z,445.00
2023-02-12T07:22:50.653Z,445.00
2023-02-12T07:23:51.519Z,443.00
2023-02-12T07:24:50.621Z,445.00
2023-02-12T07:25:50.619Z,444.00
2023-02-12T07:26:50.611Z,444.00
2023-02-12T07:27:50.612Z,444.00
2023-02-12T07:28:50.588Z,445.00
2023-02-12T07:29:50.590Z,446.00
2023-02-12T07:30:50.597Z,447.00
2023-02-12T07:31:50.633Z,448.00
2023-02-12T07:32:50.552Z,448.00
2023-02-12T07:33:50.544Z,449.00
2023-02-12T07:34:50.531Z,450.00
2023-02-12T07:35:50.647Z,450.00
2023-02-12T07:36:50.513Z,448.00
2023-02-12T07:37:50.503Z,448.00
2023-02-12T07:38:50.500Z,447.00
2023-02-12T07:39:50.503Z,448.00
2023-02-12T07:40:50.476Z,451.00
2023-02-12T07:41:50.614Z,450.00
2023-02-12T07:42:50.457Z,450.00
2023-02-12T07:43:50.452Z,450.00
2023-02-12T07:44:50.441Z,448.00
2023-02-12T07:45:50.507Z,451.00
2023-02-12T07:46:50.419Z,450.00
2023-02-12T07:47:50.415Z,449.00
2023-02-12T07:48:50.400Z,450.00
2023-02-12T07:49:50.530Z,448.00
2023-02-12T07:50:50.383Z,446.00
2023-02-12T07:51:50.440Z,446.00
2023-02-12T07:52:50.383Z,445.00
2023-02-12T07:53:51.027Z,445.00
2023-02-12T07:54:50.352Z,445.00
2023-02-12T07:55:50.340Z,443.00
2023-02-12T07:56:50.330Z,442.00
2023-02-12T07:57:50.318Z,439.00
2023-02-12T07:58:50.325Z,440.00
2023-02-12T07:59:50.307Z,442.00
2023-02-12T08:00:50.295Z,442.00
2023-02-12T08:01:50.297Z,444.00
2023-02-12T08:02:50.274Z,446.00
2023-02-12T08:03:53.093Z,442.00
2023-02-12T08:04:50.348Z,443.00
2023-02-12T08:05:50.253Z,443.00
2023-02-12T08:06:50.241Z,444.00
2023-02-12T08:07:50.258Z,446.00
2023-02-12T08:08:50.220Z,448.00
2023-02-12T08:09:50.207Z,448.00
2023-02-12T08:10:50.203Z,448.00
2023-02-12T08:11:50.196Z,449.00
2023-02-12T08:12:50.192Z,448.00
2023-02-12T08:13:50.174Z,449.00
2023-02-12T08:14:50.167Z,446.00
2023-02-12T08:15:50.153Z,443.00
2023-02-12T08:16:50.236Z,439.00
2023-02-12T08:17:50.136Z,441.00
2023-02-12T08:18:50.165Z,440.00
2023-02-12T08:19:50.120Z,439.00
2023-02-12T08:20:50.107Z,438.00
2023-02-12T08:21:50.111Z,439.00
2023-02-12T08:22:50.094Z,438.00
2023-02-12T08:23:50.131Z,440.00
2023-02-12T08:24:50.123Z,441.00
2023-02-12T08:25:50.060Z,439.00
2023-02-12T08:26:51.055Z,444.00
2023-02-12T08:27:53.039Z,445.00
2023-02-12T08:28:50.038Z,445.00
2023-02-12T08:29:50.029Z,444.00
2023-02-12T08:30:50.076Z,443.00
2023-02-12T08:31:50.103Z,444.00
2023-02-12T08:32:50.010Z,445.00
2023-02-12T08:33:49.999Z,447.00
2023-02-12T08:34:50.005Z,447.00
2023-02-12T08:35:49.976Z,445.00
2023-02-12T08:36:49.964Z,445.00
2023-02-12T08:37:49.952Z,446.00
2023-02-12T08:38:49.946Z,446.00
2023-02-12T08:39:49.970Z,445.00
2023-02-12T08:40:49.959Z,444.00
2023-02-12T08:41:49.920Z,444.00
2023-02-12T08:42:49.909Z,442.00
2023-02-12T08:43:49.897Z,442.00
2023-02-12T08:44:49.889Z,441.00
2023-02-12T08:45:49.917Z,444.00
2023-02-12T08:46:49.867Z,443.00
2023-02-12T08:47:49.855Z,442.00
2023-02-12T08:48:49.848Z,440.00
2023-02-12T08:49:49.845Z,441.00
2023-02-12T08:50:49.862Z,443.00
2023-02-12T08:51:49.826Z,444.00
2023-02-12T08:52:49.805Z,445.00
2023-02-12T08:53:49.799Z,443.00
2023-02-12T08:54:49.790Z,442.00
2023-02-12T08:55:49.812Z,445.00
2023-02-12T08:56:49.772Z,443.00
2023-02-12T08:57:49.767Z,443.00
2023-02-12T08:58:49.752Z,443.00
2023-02-12T08:59:49.750Z,444.00
2023-02-12T09:00:49.732Z,442.00
2023-02-12T09:01:49.721Z,443.00
2023-02-12T09:02:49.815Z,441.00
2023-02-12T09:03:49.708Z,441.00
2023-02-12T09:04:50.548Z,442.00
2023-02-12T09:05:49.693Z,440.00
2023-02-12T09:06:49.683Z,440.00
2023-02-12T09:07:49.666Z,441.00
2023-02-12T09:08:49.654Z,439.00
2023-02-12T09:09:49.661Z,439.00
2023-02-12T09:10:49.642Z,440.00
2023-02-12T09:11:49.722Z,441.00
2023-02-12T09:12:49.623Z,440.00
2023-02-12T09:13:49.618Z,440.00
2023-02-12T09:14:49.605Z,441.00
2023-02-12T09:15:49.594Z,442.00
2023-02-12T09:16:49.639Z,443.00
2023-02-12T09:17:49.579Z,442.00
2023-02-12T09:18:49.568Z,441.00
2023-02-12T09:19:49.578Z,441.00
2023-02-12T09:20:49.552Z,439.00
2023-02-12T09:21:49.536Z,441.00
2023-02-12T09:22:49.534Z,442.00
2023-02-12T09:23:49.518Z,442.00
2023-02-12T09:24:49.509Z,442.00
2023-02-12T09:25:49.502Z,443.00
2023-02-12T09:26:49.490Z,443.00
2023-02-12T09:27:49.513Z,442.00
2023-02-12T09:28:49.486Z,441.00
2023-02-12T09:29:49.469Z,439.00
2023-02-12T09:30:49.639Z,439.00
2023-02-12T09:31:49.660Z,439.00
2023-02-12T09:32:49.443Z,440.00
2023-02-12T09:33:53.307Z,441.00
2023-02-12T09:34:49.425Z,444.00
2023-02-12T09:35:49.410Z,446.00
2023-02-12T09:36:49.403Z,449.00
2023-02-12T09:37:49.566Z,450.00
2023-02-12T09:38:49.389Z,448.00
2023-02-12T09:39:56.058Z,448.00
2023-02-12T09:40:49.365Z,448.00
2023-02-12T09:41:49.363Z,450.00
2023-02-12T09:42:49.353Z,449.00
2023-02-12T09:43:49.360Z,449.00
2023-02-12T09:44:49.330Z,449.00
2023-02-12T09:45:51.301Z,450.00
2023-02-12T09:46:49.377Z,449.00
2023-02-12T09:47:49.298Z,447.00
2023-02-12T09:48:49.288Z,447.00
2023-02-12T09:49:50.059Z,447.00
2023-02-12T09:50:49.278Z,448.00
2023-02-12T09:51:51.359Z,448.00
2023-02-12T09:52:49.252Z,447.00
2023-02-12T09:53:49.244Z,448.00
2023-02-12T09:54:49.233Z,449.00
2023-02-12T09:55:49.241Z,450.00
2023-02-12T09:56:49.219Z,451.00
2023-02-12T09:57:54.775Z,452.00
2023-02-12T09:58:49.205Z,450.00
2023-02-12T09:59:49.226Z,449.00
2023-02-12T10:00:49.373Z,448.00
2023-02-12T10:01:50.156Z,449.00
2023-02-12T10:02:49.167Z,446.00
2023-02-12T10:03:49.159Z,446.00
2023-02-12T10:05:00.720Z,447.00
2023-02-12T10:05:52.083Z,446.00
2023-02-12T10:06:49.134Z,446.00
2023-02-12T10:07:49.128Z,449.00
2023-02-12T10:08:49.109Z,452.00
2023-02-12T10:09:49.107Z,452.00
2023-02-12T10:10:49.100Z,451.00
2023-02-12T10:11:49.128Z,452.00
2023-02-12T10:12:49.080Z,450.00
2023-02-12T10:13:49.581Z,449.00
2023-02-12T10:14:49.062Z,449.00
2023-02-12T10:15:49.124Z,449.00
2023-02-12T10:16:49.046Z,448.00
2023-02-12T10:17:49.056Z,447.00
2023-02-12T10:18:49.024Z,444.00
2023-02-12T10:19:49.015Z,444.00
2023-02-12T10:20:48.998Z,443.00
2023-02-12T10:21:48.995Z,444.00
2023-02-12T10:22:56.869Z,444.00
2023-02-12T10:23:48.984Z,445.00
2023-02-12T10:24:48.990Z,445.00
2023-02-12T10:25:48.969Z,445.00
2023-02-12T10:26:48.952Z,445.00
2023-02-12T10:27:48.972Z,445.00
2023-02-12T10:28:48.929Z,444.00
2023-02-12T10:29:48.918Z,444.00
2023-02-12T10:30:49.011Z,442.00
2023-02-12T10:31:49.025Z,445.00
2023-02-12T10:32:49.099Z,444.00
2023-02-12T10:33:48.883Z,443.00
2023-02-12T10:34:48.884Z,444.00
2023-02-12T10:35:48.861Z,445.00
2023-02-12T10:36:48.852Z,446.00
2023-02-12T10:37:48.839Z,446.00
2023-02-12T10:38:48.835Z,448.00
2023-02-12T10:39:48.847Z,446.00
2023-02-12T10:40:48.811Z,444.00
2023-02-12T10:41:48.809Z,443.00
2023-02-12T10:42:48.793Z,443.00
2023-02-12T10:43:48.779Z,443.00
2023-02-12T10:44:48.784Z,444.00
2023-02-12T10:45:48.803Z,442.00
2023-02-12T10:46:48.755Z,441.00
2023-02-12T10:47:48.779Z,440.00
2023-02-12T10:48:48.739Z,440.00
2023-02-12T10:49:48.725Z,439.00
2023-02-12T10:50:48.729Z,440.00
2023-02-12T10:51:48.729Z,441.00
2023-02-12T10:52:48.699Z,445.00
2023-02-12T10:53:48.689Z,447.00
2023-02-12T10:54:48.681Z,450.00
2023-02-12T10:55:48.672Z,449.00
2023-02-12T10:56:48.667Z,448.00
2023-02-12T10:57:48.650Z,446.00
2023-02-12T10:58:48.641Z,444.00
2023-02-12T10:59:48.642Z,446.00
2023-02-12T11:00:48.630Z,446.00
2023-02-12T11:01:48.668Z,447.00
2023-02-12T11:02:51.613Z,445.00
2023-02-12T11:03:48.598Z,445.00
2023-02-12T11:04:48.663Z,444.00
2023-02-12T11:05:48.586Z,444.00
2023-02-12T11:06:48.571Z,444.00
2023-02-12T11:07:48.591Z,445.00
2023-02-12T11:08:48.560Z,447.00
2023-02-12T11:09:48.553Z,447.00
2023-02-12T11:10:48.533Z,448.00
2023-02-12T11:11:49.615Z,446.00
2023-02-12T11:12:48.525Z,445.00
2023-02-12T11:13:48.506Z,444.00
2023-02-12T11:14:48.494Z,441.00
2023-02-12T11:15:48.518Z,438.00
2023-02-12T11:16:48.477Z,440.00
2023-02-12T11:17:48.597Z,440.00
2023-02-12T11:18:48.490Z,442.00
2023-02-12T11:19:48.452Z,443.00
2023-02-12T11:20:48.446Z,447.00
2023-02-12T11:21:48.430Z,445.00
2023-02-12T11:22:48.490Z,444.00
2023-02-12T11:23:48.418Z,444.00
2023-02-12T11:24:48.403Z,443.00
2023-02-12T11:25:48.391Z,444.00
2023-02-12T11:26:48.388Z,442.00
2023-02-12T11:27:48.427Z,441.00
2023-02-12T11:28:48.450Z,442.00
2023-02-12T11:29:48.957Z,441.00
2023-02-12T11:30:48.375Z,441.00
2023-02-12T11:31:48.366Z,441.00
2023-02-12T11:32:48.332Z,443.00
2023-02-12T11:33:48.324Z,442.00
2023-02-12T11:34:48.337Z,445.00
2023-02-12T11:35:51.102Z,445.00
2023-02-12T11:36:48.296Z,445.00
2023-02-12T11:37:48.291Z,447.00
2023-02-12T11:38:48.277Z,448.00
2023-02-12T11:39:49.105Z,448.00
2023-02-12T11:40:48.258Z,446.00
2023-02-12T11:41:48.242Z,444.00
2023-02-12T11:42:48.251Z,442.00
2023-02-12T11:43:48.251Z,441.00
2023-02-12T11:44:48.224Z,439.00
2023-02-12T11:45:48.213Z,438.00
2023-02-12T11:46:48.249Z,439.00
2023-02-12T11:47:48.194Z,438.00
2023-02-12T11:48:48.181Z,437.00
2023-02-12T11:49:48.177Z,434.00
2023-02-12T11:50:48.196Z,435.00
2023-02-12T11:51:48.166Z,438.00
2023-02-12T11:52:48.149Z,439.00
2023-02-12T11:53:48.138Z,444.00
2023-02-12T11:54:48.129Z,445.00
2023-02-12T11:55:48.118Z,447.00
2023-02-12T11:56:48.108Z,447.00
2023-02-12T11:57:48.120Z,445.00
2023-02-12T11:58:48.112Z,448.00
2023-02-12T11:59:48.088Z,447.00
2023-02-12T12:00:48.075Z,445.00
2023-02-12T12:01:48.178Z,446.00
2023-02-12T12:02:48.086Z,444.00
2023-02-12T12:03:48.049Z,445.00
2023-02-12T12:04:48.034Z,446.00
2023-02-12T12:05:48.028Z,444.00
2023-02-12T12:06:48.056Z,444.00
2023-02-12T12:07:48.011Z,445.00
2023-02-12T12:08:48.006Z,445.00
2023-02-12T12:09:47.991Z,444.00
2023-02-12T12:10:47.980Z,441.00
2023-02-12T12:11:47.968Z,440.00
2023-02-12T12:12:47.963Z,442.00
2023-02-12T12:13:48.039Z,441.00
2023-02-12T12:14:47.942Z,439.00
2023-02-12T12:15:47.935Z,440.00
2023-02-12T12:16:47.926Z,439.00
2023-02-12T12:17:47.917Z,440.00
2023-02-12T12:18:47.949Z,439.00
2023-02-12T12:19:47.900Z,439.00
2023-02-12T12:20:47.897Z,440.00
2023-02-12T12:21:47.878Z,442.00
2023-02-12T12:22:47.910Z,440.00
2023-02-12T12:23:47.864Z,440.00
2023-02-12T12:24:47.861Z,439.00
2023-02-12T12:25:47.846Z,443.00
2023-02-12T12:26:47.832Z,445.00
2023-02-12T12:27:47.856Z,446.00
2023-02-12T12:28:47.815Z,447.00
2023-02-12T12:29:47.810Z,445.00
2023-02-12T12:30:47.863Z,445.00
2023-02-12T12:31:47.869Z,447.00
2023-02-12T12:32:47.780Z,446.00
2023-02-12T12:33:47.803Z,445.00
2023-02-12T12:34:47.789Z,445.00
2023-02-12T12:35:47.754Z,446.00
2023-02-12T12:36:48.563Z,446.00
2023-02-12T12:37:48.620Z,445.00
2023-02-12T12:38:47.976Z,447.00
2023-02-12T12:39:47.933Z,446.00
2023-02-12T12:40:47.943Z,442.00
2023-02-12T12:41:48.157Z,442.00
2023-02-12T12:42:47.918Z,441.00
2023-02-12T12:43:47.903Z,441.00
2023-02-12T12:44:47.922Z,440.00
2023-02-12T12:45:47.937Z,441.00
2023-02-12T12:46:47.886Z,440.00
2023-02-12T12:47:47.862Z,439.00
2023-02-12T12:48:47.852Z,438.00
2023-02-12T12:49:47.844Z,438.00
2023-02-12T12:50:47.834Z,436.00
2023-02-12T12:51:47.828Z,436.00
2023-02-12T12:52:47.832Z,434.00
2023-02-12T12:53:47.808Z,434.00
2023-02-12T12:54:47.834Z,434.00
2023-02-12T12:55:47.813Z,434.00
2023-02-12T12:56:47.779Z,435.00
2023-02-12T12:57:47.780Z,436.00
2023-02-12T12:58:47.762Z,436.00
2023-02-12T12:59:47.757Z,436.00
2023-02-12T13:00:47.791Z,436.00
2023-02-12T13:01:47.733Z,437.00
2023-02-12T13:02:47.792Z,437.00
2023-02-12T13:03:47.718Z,438.00
2023-02-12T13:04:47.719Z,437.00
2023-02-12T13:05:48.646Z,436.00
2023-02-12T13:06:47.714Z,436.00
2023-02-12T13:07:47.686Z,438.00
2023-02-12T13:08:47.675Z,439.00
2023-02-12T13:09:47.666Z,440.00
2023-02-12T13:10:47.681Z,439.00
2023-02-12T13:11:47.647Z,439.00
2023-02-12T13:12:47.635Z,438.00
2023-02-12T13:13:47.630Z,437.00
2023-02-12T13:14:47.628Z,437.00
2023-02-12T13:15:47.619Z,436.00
2023-02-12T13:16:47.620Z,436.00